Time;durP1;ratioP1;P1;durP2;ratioP2;P2;SDS_P1;SDS_P2;PMS_P1;PMS_P2;Temp;Humidity;BMP_temperature;BMP_pressure;BME280_temperature;BME280_humidity;BME280_pressure;Samples;Min_cycle;Max_cycle;Signal;HPM_P1;HPM_P2
2022/04/13 00:00:25;;;;;;;7.23;6.53;;;10.70;97.70;;;;;;5033732;28;20410;-64
2022/04/13 00:02:50;;;;;;;7.43;6.00;;;10.60;98.00;;;;;;5034264;28;20517;-68
2022/04/13 00:05:16;;;;;;;9.37;7.20;;;10.60;98.20;;;;;;5034226;28;20453;-64
2022/04/13 00:07:42;;;;;;;9.40;8.40;;;10.60;98.50;;;;;;5034241;28;20535;-68
2022/04/13 00:10:08;;;;;;;9.40;7.07;;;10.50;99.10;;;;;;5033367;28;20640;-64
2022/04/13 00:12:34;;;;;;;6.43;6.00;;;10.50;99.00;;;;;;5034302;28;20196;-68
2022/04/13 00:15:02;;;;;;;7.20;5.87;;;10.50;98.80;;;;;;5034026;28;20482;-68
2022/04/13 00:17:28;;;;;;;13.40;6.00;;;10.40;99.80;;;;;;5033818;28;20406;-64
2022/04/13 00:19:54;;;;;;;10.33;6.83;;;10.40;99.20;;;;;;5033261;28;20836;-68
2022/04/13 00:22:19;;;;;;;8.40;7.10;;;10.30;99.20;;;;;;5032843;28;20442;-67
2022/04/13 00:24:45;;;;;;;9.27;6.37;;;10.40;99.70;;;;;;5032049;28;20545;-68
2022/04/13 00:27:10;;;;;;;8.30;6.53;;;10.30;99.60;;;;;;5033863;28;20702;-70
2022/04/13 00:29:36;;;;;;;6.93;6.23;;;10.30;99.60;;;;;;5033107;28;20183;-68
2022/04/13 00:32:03;;;;;;;7.80;6.50;;;10.30;99.90;;;;;;5032492;28;20690;-68
2022/04/13 00:34:30;;;;;;;7.17;6.47;;;10.30;99.60;;;;;;5033765;28;20197;-68
2022/04/13 00:36:57;;;;;;;7.80;7.00;;;10.30;99.80;;;;;;5033599;28;20976;-64
2022/04/13 00:39:23;;;;;;;6.63;6.00;;;10.30;99.70;;;;;;5032972;28;20455;-68
2022/04/13 00:42:05;;;;;;;6.33;5.77;;;10.30;99.60;;;;;;5033436;28;20421;-69
2022/04/13 00:44:32;;;;;;;7.10;6.20;;;10.30;99.80;;;;;;5033665;28;20457;-65
2022/04/13 00:47:01;;;;;;;14.23;6.77;;;10.20;99.90;;;;;;5033615;28;20795;-68
2022/04/13 00:49:27;;;;;;;8.13;6.50;;;10.20;99.80;;;;;;5032813;28;20804;-67
2022/04/13 00:51:53;;;;;;;7.97;6.70;;;10.20;99.90;;;;;;5033313;28;20426;-64
2022/04/13 00:54:20;;;;;;;7.50;6.30;;;10.20;99.90;;;;;;5033482;28;20457;-68
2022/04/13 00:56:49;;;;;;;10.10;7.50;;;10.20;99.90;;;;;;5033471;28;20434;-68
2022/04/13 00:59:16;;;;;;;7.20;6.50;;;10.20;99.90;;;;;;5032820;28;20397;-69
2022/04/13 01:01:49;;;;;;;8.80;6.50;;;10.20;99.90;;;;;;5033328;28;20418;-66
2022/04/13 01:04:16;;;;;;;7.97;6.23;;;10.10;99.90;;;;;;5033570;28;20398;-68
2022/04/13 01:06:43;;;;;;;7.50;6.50;;;10.10;99.90;;;;;;5033512;28;20426;-68
2022/04/13 01:09:10;;;;;;;6.90;6.20;;;10.10;99.90;;;;;;5032678;28;20475;-69
2022/04/13 01:11:35;;;;;;;8.90;5.90;;;10.10;99.90;;;;;;5033299;28;20421;-64
2022/04/13 01:14:01;;;;;;;10.90;7.20;;;10.10;99.90;;;;;;5033268;28;20456;-68
2022/04/13 01:16:27;;;;;;;7.67;5.97;;;10.10;99.90;;;;;;5033368;28;20168;-64
2022/04/13 01:18:54;;;;;;;7.73;6.63;;;10.10;99.90;;;;;;5032690;28;20175;-68
2022/04/13 01:21:45;;;;;;;8.77;6.50;;;10.00;99.90;;;;;;5033358;28;20234;-64
2022/04/13 01:24:11;;;;;;;7.30;6.70;;;10.10;99.90;;;;;;5033175;28;20391;-64
2022/04/13 01:26:37;;;;;;;6.70;6.10;;;10.00;99.90;;;;;;5033284;28;20513;-67
2022/04/13 01:29:03;;;;;;;7.03;6.43;;;10.00;99.90;;;;;;5032585;28;20421;-69
2022/04/13 01:31:30;;;;;;;7.40;5.93;;;10.00;99.90;;;;;;5033077;28;20275;-64
2022/04/13 01:33:56;;;;;;;9.33;6.83;;;10.00;99.90;;;;;;5032984;28;20452;-64
2022/04/13 01:36:22;;;;;;;9.57;6.70;;;10.00;99.90;;;;;;5035290;28;20417;-64
2022/04/13 01:38:47;;;;;;;7.10;6.17;;;10.00;99.90;;;;;;5036362;28;20902;-68
2022/04/13 01:41:13;;;;;;;6.80;6.00;;;9.90;99.90;;;;;;5036870;28;20258;-68
2022/04/13 01:43:38;;;;;;;8.30;6.57;;;10.00;99.90;;;;;;5036848;28;20202;-64
2022/04/13 01:46:04;;;;;;;8.80;6.70;;;9.90;99.90;;;;;;5035742;28;20266;-69
2022/04/13 01:48:31;;;;;;;7.30;6.70;;;9.90;99.90;;;;;;5036130;28;20171;-66
2022/04/13 01:50:58;;;;;;;6.67;6.07;;;9.90;99.90;;;;;;5036853;28;20174;-64
2022/04/13 01:53:27;;;;;;;7.20;6.60;;;9.90;99.90;;;;;;5036520;28;20429;-64
2022/04/13 01:55:54;;;;;;;6.93;6.00;;;9.90;99.90;;;;;;5036643;28;20371;-68
2022/04/13 01:58:20;;;;;;;7.90;5.87;;;9.90;99.90;;;;;;5036460;28;20406;-68
2022/04/13 02:00:46;;;;;;;7.20;6.40;;;9.90;99.90;;;;;;5035982;28;20409;-64
2022/04/13 02:03:12;;;;;;;10.50;6.37;;;9.90;99.90;;;;;;5036550;28;20429;-64
2022/04/13 02:05:37;;;;;;;8.83;6.40;;;9.80;99.90;;;;;;5036774;28;20236;-69
2022/04/13 02:08:03;;;;;;;9.67;7.43;;;9.80;99.90;;;;;;5036609;28;20250;-64
2022/04/13 02:10:29;;;;;;;7.93;6.27;;;9.80;99.90;;;;;;5035635;28;20191;-68
2022/04/13 02:12:54;;;;;;;7.20;6.43;;;9.80;99.90;;;;;;5036258;28;20195;-64
2022/04/13 02:15:20;;;;;;;7.90;7.10;;;9.90;99.90;;;;;;5036358;28;20195;-63
2022/04/13 02:17:46;;;;;;;8.73;6.70;;;9.80;99.90;;;;;;5036388;28;20259;-68
2022/04/13 02:20:12;;;;;;;6.37;5.77;;;9.80;99.90;;;;;;5035537;28;20413;-64
2022/04/13 02:22:38;;;;;;;10.30;6.30;;;9.80;99.90;;;;;;5035988;28;20187;-69
2022/04/13 02:25:05;;;;;;;7.50;5.80;;;9.70;99.90;;;;;;5036217;28;20175;-64
2022/04/13 02:27:31;;;;;;;7.97;7.17;;;9.70;99.90;;;;;;5036031;28;20759;-64
2022/04/13 02:29:57;;;;;;;7.30;6.60;;;9.60;99.90;;;;;;5035408;28;20924;-64
2022/04/13 02:32:23;;;;;;;7.70;6.90;;;9.70;99.90;;;;;;5035911;28;20479;-68
2022/04/13 02:34:49;;;;;;;6.33;5.73;;;9.70;99.90;;;;;;5035807;28;20953;-64
2022/04/13 02:37:15;;;;;;;10.23;6.93;;;9.60;99.90;;;;;;5035891;28;20467;-64
2022/04/13 02:39:41;;;;;;;9.00;6.53;;;9.70;99.90;;;;;;5035221;28;20644;-63
2022/04/13 02:42:07;;;;;;;7.10;6.27;;;9.60;99.90;;;;;;5035685;28;20429;-68
2022/04/13 02:44:33;;;;;;;11.20;6.30;;;9.70;99.90;;;;;;5034441;28;20713;-69
2022/04/13 02:46:59;;;;;;;8.03;7.00;;;9.60;99.90;;;;;;5034953;28;20181;-67
2022/04/13 02:49:26;;;;;;;8.23;7.03;;;9.70;99.90;;;;;;5035025;28;20191;-68
2022/04/13 02:51:51;;;;;;;8.30;7.37;;;9.60;99.90;;;;;;5035711;28;20430;-64
2022/04/13 02:54:17;;;;;;;7.03;6.47;;;9.60;99.90;;;;;;5035481;28;20449;-68
2022/04/13 02:56:42;;;;;;;8.07;6.67;;;9.70;99.90;;;;;;5035344;28;20166;-66
2022/04/13 02:59:09;;;;;;;7.10;6.20;;;9.70;99.90;;;;;;5034857;28;20163;-64
2022/04/13 03:01:34;;;;;;;7.37;6.40;;;9.70;99.90;;;;;;5035512;28;20239;-68
2022/04/13 03:04:00;;;;;;;7.87;7.07;;;9.70;99.90;;;;;;5035497;28;20870;-64
2022/04/13 03:06:26;;;;;;;7.60;6.67;;;9.60;99.90;;;;;;5035520;28;20167;-63
2022/04/13 03:08:52;;;;;;;7.90;6.00;;;9.60;99.90;;;;;;5034640;28;20397;-64
2022/04/13 03:11:18;;;;;;;9.43;6.20;;;9.70;99.90;;;;;;5035333;28;20179;-64
2022/04/13 03:13:43;;;;;;;7.33;6.63;;;9.70;99.90;;;;;;5035349;28;20755;-68
2022/04/13 03:16:09;;;;;;;9.03;7.90;;;9.70;99.90;;;;;;5034267;28;20698;-63
2022/04/13 03:18:34;;;;;;;7.50;6.80;;;9.60;99.90;;;;;;5034630;28;20190;-69
2022/04/13 03:21:00;;;;;;;9.27;7.80;;;9.60;99.90;;;;;;5033778;28;20171;-68
2022/04/13 03:23:26;;;;;;;10.50;7.60;;;9.60;99.90;;;;;;5035064;28;20191;-68
2022/04/13 03:25:52;;;;;;;7.70;6.90;;;9.70;99.90;;;;;;5035036;28;20175;-64
2022/04/13 03:28:19;;;;;;;8.07;7.00;;;9.70;99.90;;;;;;5034976;28;20253;-68
2022/04/13 03:30:45;;;;;;;9.23;7.27;;;9.70;99.90;;;;;;5034266;28;20162;-64
2022/04/13 03:33:11;;;;;;;10.07;6.90;;;9.70;99.90;;;;;;5034731;28;20420;-63
2022/04/13 03:35:36;;;;;;;8.93;6.63;;;9.70;99.90;;;;;;5034770;28;20280;-64
2022/04/13 03:38:02;;;;;;;8.27;7.23;;;9.80;99.90;;;;;;5034837;28;20198;-64
2022/04/13 03:40:28;;;;;;;7.97;6.40;;;9.70;99.90;;;;;;5033987;28;20630;-63
2022/04/13 03:42:53;;;;;;;8.10;6.80;;;9.70;99.90;;;;;;5034536;28;20186;-69
2022/04/13 03:45:19;;;;;;;8.57;6.57;;;9.70;99.90;;;;;;5034546;28;20648;-68
2022/04/13 03:47:44;;;;;;;8.00;6.97;;;9.70;99.90;;;;;;5034573;28;20203;-64
2022/04/13 03:50:11;;;;;;;7.80;7.00;;;9.70;99.90;;;;;;5033981;28;20243;-68
2022/04/13 03:52:37;;;;;;;11.23;7.60;;;9.70;99.90;;;;;;5034432;28;20195;-64
2022/04/13 03:55:05;;;;;;;11.07;7.23;;;9.80;99.90;;;;;;5034198;28;20464;-65
2022/04/13 03:57:31;;;;;;;8.10;6.93;;;9.80;99.90;;;;;;5034282;28;20811;-68
2022/04/13 03:59:57;;;;;;;8.30;7.50;;;9.80;99.90;;;;;;5032750;28;20409;-64
2022/04/13 04:02:23;;;;;;;6.80;6.20;;;9.70;99.90;;;;;;5034261;28;20779;-68
2022/04/13 04:04:49;;;;;;;9.67;7.60;;;9.70;99.90;;;;;;5034226;28;20405;-64
2022/04/13 04:07:15;;;;;;;12.00;6.60;;;9.70;99.90;;;;;;5034185;28;20179;-65
2022/04/13 04:09:40;;;;;;;8.90;8.00;;;9.70;99.90;;;;;;5033526;28;20433;-64
2022/04/13 04:12:06;;;;;;;10.40;7.53;;;9.70;99.90;;;;;;5034114;28;20420;-64
2022/04/13 04:14:32;;;;;;;11.70;7.90;;;9.80;99.90;;;;;;5034016;28;20561;-63
2022/04/13 04:16:58;;;;;;;9.57;7.03;;;9.70;99.90;;;;;;5034172;28;20394;-68
2022/04/13 04:19:23;;;;;;;10.70;7.77;;;9.70;99.90;;;;;;5033241;28;20172;-64
2022/04/13 04:21:49;;;;;;;10.30;7.37;;;9.70;99.90;;;;;;5033994;28;20660;-66
2022/04/13 04:24:15;;;;;;;7.53;6.47;;;9.70;99.90;;;;;;5034307;28;20521;-68
2022/04/13 04:26:40;;;;;;;11.07;6.30;;;9.70;99.90;;;;;;5032630;28;20184;-68
2022/04/13 04:29:06;;;;;;;7.57;6.73;;;9.60;99.90;;;;;;5033250;28;20233;-69
2022/04/13 04:31:50;;;;;;;6.83;6.20;;;9.60;99.90;;;;;;5033672;28;20702;-64
2022/04/13 04:34:17;;;;;;;8.90;6.10;;;9.60;99.90;;;;;;5032463;28;20565;-69
2022/04/13 04:36:44;;;;;;;9.97;7.67;;;9.50;99.90;;;;;;5033714;28;20396;-69
2022/04/13 04:39:09;;;;;;;8.70;6.90;;;9.60;99.90;;;;;;5033042;28;20393;-67
2022/04/13 04:41:35;;;;;;;7.97;6.50;;;9.60;99.90;;;;;;5033517;28;20422;-68
2022/04/13 04:44:01;;;;;;;9.27;7.80;;;9.50;99.90;;;;;;5033653;28;20205;-64
2022/04/13 04:46:26;;;;;;;13.73;8.40;;;9.50;99.90;;;;;;5033592;28;20174;-69
2022/04/13 04:48:52;;;;;;;9.73;7.50;;;9.50;99.90;;;;;;5032951;28;20175;-63
2022/04/13 04:51:19;;;;;;;10.13;7.37;;;9.40;99.90;;;;;;5033427;28;20202;-67
2022/04/13 04:53:47;;;;;;;9.70;7.33;;;9.40;99.90;;;;;;5033288;28;20864;-65
2022/04/13 04:56:13;;;;;;;11.30;7.60;;;9.50;99.90;;;;;;5033608;28;20509;-69
2022/04/13 04:58:38;;;;;;;13.40;7.33;;;9.60;99.90;;;;;;5032687;28;20403;-65
2022/04/13 05:01:04;;;;;;;7.33;6.40;;;9.50;99.90;;;;;;5032751;28;20427;-67
2022/04/13 05:03:31;;;;;;;9.73;8.63;;;9.50;99.90;;;;;;5033194;28;20245;-67
2022/04/13 05:05:56;;;;;;;8.30;7.50;;;9.50;99.90;;;;;;5033292;28;20173;-64
2022/04/13 05:08:22;;;;;;;9.40;7.10;;;9.60;99.90;;;;;;5033570;28;20500;-69
2022/04/13 05:10:51;;;;;;;10.63;7.80;;;9.50;99.90;;;;;;5032932;28;20182;-64
2022/04/13 05:13:17;;;;;;;11.10;6.83;;;9.60;99.90;;;;;;5037536;28;20192;-68
2022/04/13 05:15:43;;;;;;;9.03;6.60;;;9.50;99.90;;;;;;5037377;28;20449;-67
2022/04/13 05:18:08;;;;;;;9.40;7.57;;;9.60;99.90;;;;;;5037366;28;20401;-64
2022/04/13 05:20:34;;;;;;;9.33;7.67;;;9.60;99.90;;;;;;5036734;28;20627;-68
2022/04/13 05:23:00;;;;;;;10.13;7.60;;;9.60;99.90;;;;;;5037331;28;20187;-64
2022/04/13 05:25:25;;;;;;;9.17;7.23;;;9.60;99.90;;;;;;5037320;28;20171;-64
2022/04/13 05:27:51;;;;;;;8.27;7.13;;;9.60;99.90;;;;;;5037237;28;20171;-67
2022/04/13 05:30:17;;;;;;;10.67;7.20;;;9.60;99.90;;;;;;5036563;28;20206;-68
2022/04/13 05:33:01;;;;;;;9.03;7.33;;;9.60;99.90;;;;;;5036987;28;20197;-68
2022/04/13 05:35:28;;;;;;;8.73;6.60;;;9.60;99.90;;;;;;5037062;28;20263;-64
2022/04/13 05:37:55;;;;;;;9.50;7.40;;;9.60;99.90;;;;;;5036987;28;20413;-64
2022/04/13 05:40:22;;;;;;;7.97;7.17;;;9.60;99.90;;;;;;5036328;28;20894;-68
2022/04/13 05:42:48;;;;;;;7.73;7.00;;;9.60;99.90;;;;;;5035620;28;20444;-64
2022/04/13 05:45:15;;;;;;;9.70;6.97;;;9.70;99.90;;;;;;5036753;28;20429;-68
2022/04/13 05:47:42;;;;;;;8.77;7.07;;;9.60;99.90;;;;;;5036841;28;20406;-64
2022/04/13 05:50:09;;;;;;;12.50;6.93;;;9.70;99.90;;;;;;5036072;28;20420;-64
2022/04/13 05:52:35;;;;;;;12.00;8.70;;;9.70;99.90;;;;;;5036773;28;20778;-64
2022/04/13 05:55:01;;;;;;;12.33;8.47;;;9.70;99.90;;;;;;5036555;28;20467;-63
2022/04/13 05:57:27;;;;;;;9.87;7.67;;;9.80;99.90;;;;;;5036674;28;20488;-64
2022/04/13 05:59:53;;;;;;;9.33;8.20;;;9.80;99.90;;;;;;5035811;28;20163;-64
2022/04/13 06:02:19;;;;;;;14.47;7.40;;;9.80;99.90;;;;;;5036390;28;20187;-64
2022/04/13 06:04:45;;;;;;;11.00;8.30;;;9.90;99.90;;;;;;5036475;28;20412;-68
2022/04/13 06:07:11;;;;;;;19.23;7.97;;;9.90;99.90;;;;;;5036432;28;20402;-69
2022/04/13 06:09:36;;;;;;;9.73;7.87;;;9.90;99.90;;;;;;5035685;28;20428;-68
2022/04/13 06:12:02;;;;;;;9.70;7.50;;;10.00;99.90;;;;;;5036435;28;20540;-65
2022/04/13 06:14:28;;;;;;;10.20;7.87;;;10.00;99.90;;;;;;5036330;28;20565;-67
2022/04/13 06:16:54;;;;;;;11.90;8.17;;;10.10;99.90;;;;;;5036464;28;20405;-64
2022/04/13 06:19:19;;;;;;;10.17;7.10;;;10.10;99.90;;;;;;5034381;28;20206;-64
2022/04/13 06:21:45;;;;;;;9.87;6.97;;;10.20;99.90;;;;;;5035475;28;20186;-68
2022/04/13 06:24:11;;;;;;;12.33;7.40;;;10.20;99.90;;;;;;5035785;28;20174;-64
2022/04/13 06:26:37;;;;;;;9.87;7.20;;;10.20;99.90;;;;;;5035966;28;20175;-63
2022/04/13 06:29:03;;;;;;;13.60;7.90;;;10.30;99.90;;;;;;5035425;28;20645;-67
2022/04/13 06:31:29;;;;;;;9.53;8.13;;;10.30;99.90;;;;;;5036094;28;20449;-69
2022/04/13 06:33:55;;;;;;;10.27;7.80;;;10.30;99.90;;;;;;5035921;28;20637;-69
2022/04/13 06:36:21;;;;;;;11.83;7.40;;;10.40;99.90;;;;;;5035889;28;20910;-64
2022/04/13 06:38:47;;;;;;;12.97;8.03;;;10.40;99.90;;;;;;5035287;28;20175;-64
2022/04/13 06:41:13;;;;;;;10.00;8.07;;;10.50;99.90;;;;;;5036010;28;20168;-68
2022/04/13 06:43:39;;;;;;;10.07;8.17;;;10.50;99.90;;;;;;5035858;28;20221;-64
2022/04/13 06:46:05;;;;;;;10.23;7.30;;;10.60;99.90;;;;;;5035821;28;20391;-68
2022/04/13 06:48:31;;;;;;;10.57;8.07;;;10.60;99.90;;;;;;5034949;28;20402;-64
2022/04/13 06:50:57;;;;;;;14.13;7.60;;;10.60;99.90;;;;;;5035673;28;20923;-64
2022/04/13 06:53:23;;;;;;;11.77;8.97;;;10.70;99.90;;;;;;5034352;28;20184;-68
2022/04/13 06:55:49;;;;;;;12.57;8.77;;;10.70;99.90;;;;;;5034271;28;20936;-64
2022/04/13 06:58:16;;;;;;;10.93;7.40;;;10.70;99.90;;;;;;5035405;28;20399;-69
2022/04/13 07:00:42;;;;;;;12.50;8.43;;;10.80;99.90;;;;;;5034766;28;20163;-69
2022/04/13 07:03:07;;;;;;;9.47;8.30;;;10.90;99.90;;;;;;5035634;28;20416;-69
2022/04/13 07:05:33;;;;;;;10.80;7.77;;;10.90;99.90;;;;;;5035543;28;20175;-64
2022/04/13 07:08:00;;;;;;;8.73;7.60;;;10.90;99.90;;;;;;5035352;28;20456;-68
2022/04/13 07:10:27;;;;;;;12.37;7.90;;;11.00;99.90;;;;;;5034546;28;20426;-69
2022/04/13 07:12:53;;;;;;;14.00;9.13;;;11.20;99.90;;;;;;5035051;28;20459;-69
2022/04/13 07:15:19;;;;;;;10.67;7.93;;;11.20;99.90;;;;;;5035327;28;20454;-68
2022/04/13 07:17:46;;;;;;;9.50;7.77;;;11.40;99.90;;;;;;5035335;28;20478;-63
2022/04/13 07:20:13;;;;;;;9.20;8.13;;;11.40;99.90;;;;;;5034652;28;20174;-68
2022/04/13 07:22:42;;;;;;;11.00;7.47;;;11.50;99.90;;;;;;5035092;28;20509;-67
2022/04/13 07:25:08;;;;;;;9.77;7.27;;;11.60;99.90;;;;;;5035072;28;20472;-68
2022/04/13 07:27:34;;;;;;;9.13;7.23;;;11.80;99.90;;;;;;5035260;28;20486;-64
2022/04/13 07:29:59;;;;;;;9.73;7.27;;;11.90;99.90;;;;;;5034432;28;20171;-64
2022/04/13 07:32:25;;;;;;;9.33;8.40;;;11.90;99.90;;;;;;5035019;28;20219;-64
2022/04/13 07:34:50;;;;;;;11.70;7.80;;;12.00;99.90;;;;;;5034591;28;20253;-69
2022/04/13 07:37:16;;;;;;;12.43;7.80;;;12.10;99.90;;;;;;5034813;28;20168;-64
2022/04/13 07:39:42;;;;;;;10.70;7.57;;;12.20;99.90;;;;;;5034091;28;20243;-69
2022/04/13 07:42:07;;;;;;;10.13;7.83;;;12.30;99.90;;;;;;5034631;28;20195;-69
2022/04/13 07:44:33;;;;;;;10.20;8.20;;;12.40;99.90;;;;;;5034710;28;20649;-64
2022/04/13 07:46:58;;;;;;;10.47;8.30;;;12.50;99.90;;;;;;5034538;28;20191;-69
2022/04/13 07:49:24;;;;;;;10.10;7.53;;;12.50;99.90;;;;;;5034031;28;20172;-69
2022/04/13 07:51:50;;;;;;;16.63;8.40;;;12.60;99.90;;;;;;5034504;28;20271;-65
2022/04/13 07:54:15;;;;;;;10.90;7.27;;;12.60;99.90;;;;;;5034452;28;20649;-64
2022/04/13 07:56:41;;;;;;;9.27;7.53;;;12.60;99.90;;;;;;5034346;28;20565;-67
2022/04/13 07:59:06;;;;;;;10.43;8.27;;;12.60;99.90;;;;;;5033559;28;20195;-65
2022/04/13 08:01:32;;;;;;;11.63;8.10;;;12.60;99.90;;;;;;5034393;28;20277;-68
2022/04/13 08:03:58;;;;;;;11.37;7.67;;;12.60;99.90;;;;;;5034234;28;20202;-64
2022/04/13 08:06:23;;;;;;;9.27;7.07;;;12.60;99.90;;;;;;5034264;28;20168;-64
2022/04/13 08:08:49;;;;;;;12.10;7.63;;;12.60;99.90;;;;;;5033440;28;20664;-65
2022/04/13 08:11:15;;;;;;;9.80;7.63;;;12.50;99.90;;;;;;5033948;28;20167;-68
2022/04/13 08:13:40;;;;;;;9.10;7.27;;;12.60;99.90;;;;;;5034109;28;20532;-69
2022/04/13 08:16:06;;;;;;;8.77;6.80;;;12.70;99.90;;;;;;5034158;28;20164;-69
2022/04/13 08:18:32;;;;;;;13.80;8.60;;;12.90;99.90;;;;;;5033430;28;20167;-69
2022/04/13 08:20:59;;;;;;;11.00;7.20;;;13.00;99.90;;;;;;5033992;28;20517;-69
2022/04/13 08:23:24;;;;;;;10.90;7.93;;;13.00;99.90;;;;;;5033861;28;20183;-69
2022/04/13 08:25:50;;;;;;;9.60;7.80;;;13.10;99.90;;;;;;5033946;28;20373;-68
2022/04/13 08:28:16;;;;;;;11.70;8.40;;;13.20;99.90;;;;;;5033990;28;20199;-69
2022/04/13 08:30:41;;;;;;;10.10;7.47;;;13.20;99.90;;;;;;5033223;28;20171;-64
2022/04/13 08:33:07;;;;;;;10.33;7.13;;;13.30;99.90;;;;;;5033797;28;20200;-64
2022/04/13 08:35:33;;;;;;;13.50;7.30;;;13.30;99.90;;;;;;5032397;28;20744;-70
2022/04/13 08:37:58;;;;;;;10.73;7.80;;;13.40;99.90;;;;;;5033716;28;20174;-64
2022/04/13 08:40:24;;;;;;;8.90;7.80;;;13.50;99.90;;;;;;5032922;28;20186;-68
2022/04/13 08:43:07;;;;;;;8.57;7.07;;;13.60;99.90;;;;;;5033501;28;20176;-64
2022/04/13 08:45:52;;;;;;;9.50;6.80;;;13.70;99.90;;;;;;5032976;28;20172;-68
2022/04/13 08:48:22;;;;;;;9.27;6.93;;;13.90;99.90;;;;;;5033663;28;20417;-69
2022/04/13 08:50:50;;;;;;;11.47;8.60;;;14.10;99.90;;;;;;5032923;28;20391;-64
2022/04/13 08:53:20;;;;;;;13.30;8.37;;;14.30;99.90;;;;;;5033296;28;20479;-68
2022/04/13 08:55:53;;;;;;;8.80;7.70;;;14.40;99.90;;;;;;5033224;28;20461;-64
2022/04/13 08:58:33;;;;;;;8.17;6.60;;;14.40;99.90;;;;;;5033191;28;20402;-64
2022/04/13 09:01:02;;;;;;;12.90;8.00;;;14.60;99.90;;;;;;5033441;28;20394;-70
2022/04/13 09:03:50;;;;;;;9.00;8.00;;;14.80;99.90;;;;;;5031869;28;20400;-64
2022/04/13 09:06:20;;;;;;;11.77;7.40;;;15.00;99.90;;;;;;5033568;28;20743;-64
2022/04/13 09:08:52;;;;;;;10.83;7.90;;;15.20;99.90;;;;;;5032597;28;20381;-64
2022/04/13 09:11:20;;;;;;;7.03;6.30;;;15.50;99.90;;;;;;5033221;28;20396;-65
2022/04/13 09:13:46;;;;;;;9.33;8.33;;;15.70;99.90;;;;;;5032908;28;20842;-65
2022/04/13 09:16:13;;;;;;;8.87;7.33;;;15.80;99.90;;;;;;5033562;28;20414;-64
2022/04/13 09:18:39;;;;;;;9.13;6.80;;;15.90;99.90;;;;;;5032719;28;20369;-64
2022/04/13 09:21:04;;;;;;;11.10;8.23;;;16.00;99.90;;;;;;5031801;28;20464;-64
2022/04/13 09:23:30;;;;;;;9.47;6.93;;;16.10;99.90;;;;;;5033226;28;20219;-68
2022/04/13 09:25:58;;;;;;;10.30;8.00;;;16.00;99.90;;;;;;5033221;28;20187;-64
2022/04/13 09:28:25;;;;;;;7.73;6.90;;;16.20;99.90;;;;;;5033277;28;20250;-70
2022/04/13 09:30:52;;;;;;;11.30;7.10;;;16.30;99.90;;;;;;5032606;28;20422;-69
2022/04/13 09:33:18;;;;;;;8.60;7.00;;;16.70;99.90;;;;;;5033052;28;20414;-64
2022/04/13 09:35:44;;;;;;;10.97;7.57;;;17.10;99.90;;;;;;5032945;28;20943;-65
2022/04/13 09:38:10;;;;;;;11.00;8.37;;;17.40;99.90;;;;;;5032947;28;20402;-65
2022/04/13 09:40:37;;;;;;;12.47;8.10;;;17.80;99.90;;;;;;5032199;28;20679;-66
2022/04/13 09:43:08;;;;;;;9.10;6.70;;;18.00;99.90;;;;;;5032881;28;20413;-65
2022/04/13 09:45:36;;;;;;;11.03;7.40;;;18.20;99.90;;;;;;5032962;28;20390;-64
2022/04/13 09:48:05;;;;;;;10.90;7.73;;;18.30;99.90;;;;;;5032828;28;20490;-69
2022/04/13 09:50:31;;;;;;;11.50;7.33;;;18.30;99.90;;;;;;5032300;28;20410;-65
2022/04/13 09:52:57;;;;;;;12.07;8.43;;;18.50;99.90;;;;;;5032771;28;20422;-65
2022/04/13 09:55:25;;;;;;;11.33;8.70;;;18.70;99.90;;;;;;5032770;28;20456;-70
2022/04/13 09:58:04;;;;;;;10.73;7.87;;;18.90;99.90;;;;;;5035695;28;20409;-70
2022/04/13 10:00:30;;;;;;;12.77;7.90;;;19.10;99.90;;;;;;5035978;28;20394;-65
2022/04/13 10:03:07;;;;;;;15.47;7.43;;;19.30;99.90;;;;;;5036611;28;20418;-69
2022/04/13 10:05:34;;;;;;;10.73;7.80;;;19.50;99.90;;;;;;5036471;28;20401;-65
2022/04/13 10:08:10;;;;;;;13.03;8.23;;;19.60;99.90;;;;;;5036344;28;20485;-65
2022/04/13 10:10:42;;;;;;;11.57;7.90;;;19.60;99.90;;;;;;5035707;28;20914;-65
2022/04/13 10:13:08;;;;;;;13.63;8.87;;;19.40;99.90;;;;;;5036310;28;20996;-70
2022/04/13 10:15:34;;;;;;;12.87;7.30;;;19.50;99.90;;;;;;5036308;28;20779;-65
2022/04/13 10:18:01;;;;;;;10.30;7.83;;;19.80;99.90;;;;;;5036200;28;20398;-71
2022/04/13 10:20:46;;;;;;;11.87;8.33;;;19.80;99.90;;;;;;5036009;28;20483;-65
2022/04/13 10:23:13;;;;;;;10.40;7.23;;;20.10;99.90;;;;;;5036160;28;20421;-65
2022/04/13 10:25:40;;;;;;;12.23;8.10;;;20.10;99.90;;;;;;5036311;28;20399;-70
2022/04/13 10:28:06;;;;;;;17.00;7.47;;;20.30;99.90;;;;;;5036202;28;20485;-67
2022/04/13 10:30:49;;;;;;;;;;;;;;;;;;;;;
2022/04/13 10:33:15;;;;;;;11.90;9.13;;;20.90;99.90;;;;;;5035973;28;20771;-65
2022/04/13 10:35:43;;;;;;;14.00;8.47;;;20.90;99.90;;;;;;5036020;28;20550;-70
2022/04/13 10:38:09;;;;;;;10.83;7.77;;;20.80;99.90;;;;;;5035926;28;20164;-70
2022/04/13 10:40:39;;;;;;;13.20;8.03;;;20.60;99.90;;;;;;5035309;28;20402;-65
2022/04/13 10:43:07;;;;;;;17.90;8.60;;;20.30;99.90;;;;;;5035736;28;20501;-69
2022/04/13 10:45:34;;;;;;;12.80;8.23;;;20.10;99.90;;;;;;5035845;28;20405;-70
2022/04/13 10:48:08;;;;;;;9.47;7.43;;;20.10;99.90;;;;;;5035792;28;20461;-65
2022/04/13 10:50:41;;;;;;;13.07;9.43;;;20.40;99.90;;;;;;5035042;28;20434;-65
2022/04/13 10:53:22;;;;;;;10.87;7.97;;;20.90;99.90;;;;;;5035639;28;20468;-70
2022/04/13 10:55:59;;;;;;;16.40;9.17;;;20.50;99.60;;;;;;5035499;28;20962;-65
2022/04/13 10:59:07;;;;;;;14.53;8.77;;;20.40;99.90;;;;;;5035391;28;20465;-65
2022/04/13 11:01:42;;;;;;;10.97;8.07;;;20.50;99.90;;;;;;5035379;28;20430;-70
2022/04/13 11:04:09;;;;;;;12.60;9.23;;;20.90;99.90;;;;;;5035373;28;20976;-69
2022/04/13 11:06:39;;;;;;;12.87;8.73;;;21.10;99.90;;;;;;5035205;28;20414;-70
2022/04/13 11:09:11;;;;;;;19.07;9.23;;;20.80;99.80;;;;;;5034045;28;20505;-65
2022/04/13 11:11:38;;;;;;;14.30;9.03;;;20.70;99.90;;;;;;5033869;28;20434;-65
2022/04/13 11:14:18;;;;;;;14.60;9.27;;;21.10;99.90;;;;;;5035168;28;20449;-65
2022/04/13 11:16:44;;;;;;;13.80;9.20;;;21.30;99.90;;;;;;5035071;28;20402;-65
2022/04/13 11:19:10;;;;;;;13.20;9.73;;;21.70;99.90;;;;;;5034781;28;20405;-65
2022/04/13 11:21:55;;;;;;;15.70;9.70;;;22.20;99.90;;;;;;5035059;28;20187;-71
2022/04/13 11:24:45;;;;;;;16.13;8.90;;;22.60;99.90;;;;;;5035106;28;20180;-71
2022/04/13 11:27:11;;;;;;;14.67;9.50;;;23.00;99.90;;;;;;5034978;28;20394;-65
2022/04/13 11:29:40;;;;;;;14.87;9.27;;;23.40;99.90;;;;;;5034330;28;20402;-65
2022/04/13 11:32:16;;;;;;;14.30;9.90;;;23.80;97.40;;;;;;5034889;28;20509;-70
2022/04/13 11:34:44;;;;;;;12.23;8.57;;;23.80;98.00;;;;;;5034777;28;21007;-71
2022/04/13 11:37:14;;;;;;;15.10;11.07;;;24.00;97.20;;;;;;5034871;28;20434;-71
2022/04/13 11:39:43;;;;;;;14.17;9.63;;;24.30;97.30;;;;;;5034195;28;20398;-70
2022/04/13 11:42:28;;;;;;;13.40;8.40;;;24.60;97.40;;;;;;5034794;28;20436;-71
2022/04/13 11:45:00;;;;;;;13.17;9.47;;;24.70;97.50;;;;;;5034615;28;20398;-66
2022/04/13 11:47:43;;;;;;;14.87;10.23;;;24.60;98.50;;;;;;5034669;28;20398;-71
2022/04/13 11:50:18;;;;;;;14.10;10.70;;;24.90;97.50;;;;;;5033932;28;20394;-65
2022/04/13 11:52:52;;;;;;;18.43;9.47;;;24.60;97.40;;;;;;5034479;28;20421;-71
2022/04/13 11:55:19;;;;;;;14.67;8.63;;;24.40;97.40;;;;;;5034476;28;20536;-70
2022/04/13 11:58:13;;;;;;;13.73;9.50;;;24.50;97.40;;;;;;5034521;28;20457;-66
2022/04/13 12:00:50;;;;;;;13.77;9.27;;;24.50;97.40;;;;;;5033811;28;20466;-69
2022/04/13 12:03:31;;;;;;;15.30;10.10;;;24.60;97.50;;;;;;5034180;28;20429;-71
2022/04/13 12:06:15;;;;;;;15.80;10.30;;;24.70;97.50;;;;;;5034355;28;20405;-70
2022/04/13 12:08:43;;;;;;;14.97;10.30;;;24.90;97.60;;;;;;5033377;28;20806;-66
2022/04/13 12:11:16;;;;;;;13.40;9.90;;;24.70;97.50;;;;;;5033980;28;20410;-67
2022/04/13 12:13:50;;;;;;;16.73;10.37;;;24.30;97.30;;;;;;5034342;28;20433;-66
2022/04/13 12:16:20;;;;;;;22.83;10.37;;;24.00;97.20;;;;;;5034162;28;20402;-65
2022/04/13 12:18:47;;;;;;;10.03;8.43;;;24.10;97.20;;;;;;5033364;28;20799;-67
2022/04/13 12:21:21;;;;;;;11.13;8.90;;;24.00;97.20;;;;;;5031688;28;20919;-66
2022/04/13 12:23:49;;;;;;;10.63;8.57;;;23.80;97.10;;;;;;5034029;28;20503;-71
2022/04/13 12:26:15;;;;;;;14.03;10.97;;;23.70;97.10;;;;;;5034045;28;20537;-71
2022/04/13 12:28:41;;;;;;;10.83;9.20;;;23.70;97.10;;;;;;5033498;28;20933;-70
2022/04/13 12:31:09;;;;;;;13.67;9.50;;;23.80;98.20;;;;;;5033748;28;20486;-66
2022/04/13 12:33:37;;;;;;;15.00;10.00;;;23.50;97.10;;;;;;5033919;28;20171;-69
2022/04/13 12:36:08;;;;;;;14.87;9.90;;;23.40;97.00;;;;;;5033905;28;20914;-70
2022/04/13 12:38:41;;;;;;;18.17;9.50;;;23.40;97.00;;;;;;5031781;28;20844;-66
2022/04/13 12:41:16;;;;;;;15.20;9.43;;;23.50;97.00;;;;;;5033723;28;20817;-72
2022/04/13 12:43:44;;;;;;;13.43;8.63;;;23.60;97.00;;;;;;5033652;28;20895;-66
2022/04/13 12:46:19;;;;;;;12.53;8.90;;;23.70;97.10;;;;;;5033502;28;20462;-65
2022/04/13 12:48:48;;;;;;;13.83;8.70;;;23.80;97.20;;;;;;5032772;28;20406;-70